Overview Statistics Trail Chart Weather Telemetry Raw packets
 

This is the latest recevied weather packets stored in our database for station/object KQ7A. If no packets are shown the sender has not sent any weather packets the latest 10 day(s).

<< 73 74 75 76 77 78 79 >>
Time Temp. Humidity Pressure Rain* Wind** Luminosity Snow
1788157707 16.11° C 55% 1018.2 hPa 0 mm - 0 W/m² -
1788157402 16.67° C 50% 1018.3 hPa 0 mm - 0 W/m² -
1788157101 16.11° C 54% 1018.1 hPa 0 mm - 0 W/m² -
1788156795 16.11° C 56% 1018.1 hPa 0 mm - 0 W/m² -
1788156491 16.67° C 56% 1018.2 hPa 0 mm - 0 W/m² -
1788156190 17.22° C 52% 1018.1 hPa 0 mm - 0 W/m² -
1788155890 18.33° C 47% 1018.1 hPa 0 mm - 0 W/m² -
1788155586 18.33° C 47% 1018.1 hPa 0 mm - 0 W/m² -
1788155281 18.89° C 46% 1018.2 hPa 0 mm - 0 W/m² -
1788154976 17.78° C 48% 1018.3 hPa 0 mm - 0 W/m² -
1788154674 17.78° C 49% 1018.3 hPa 0 mm - 0 W/m² -
1788154373 18.33° C 49% 1018.3 hPa 0 mm - 0 W/m² -
1788154068 19.44° C 48% 1018.1 hPa 0 mm - 0 W/m² -
1788153767 18.89° C 47% 1018.2 hPa 0 mm - 0 W/m² -
1788153465 18.89° C 51% 1018.2 hPa 0 mm - 0 W/m² -
1788153164 18.89° C 48% 1018.2 hPa 0 mm - 0 W/m² -
1788152859 17.78° C 51% 1018.3 hPa 0 mm - 0 W/m² -
1788152558 17.22° C 52% 1018.1 hPa 0 mm - 0 W/m² -
1788152253 16.67° C 54% 1018.2 hPa 0 mm - 0 W/m² -
1788151947 16.67° C 55% 1018.3 hPa 0 mm - 0 W/m² -
1788151642 16.11° C 55% 1017.9 hPa 0 mm - 0 W/m² -
1788151337 16.11° C 59% 1018.1 hPa 0 mm - 0 W/m² -
1788151033 16.67° C 58% 1017.7 hPa 0 mm - 0 W/m² -
1788150728 17.22° C 50% 1017.7 hPa 0 mm - 0 W/m² -
1788150427 17.78° C 51% 1017.7 hPa 0 mm - 0 W/m² -

* Rain latest hour (hover to see other rain measurements)
** Current wind speed in m/s (hover to see current wind gust speed)